Zhytomyr, Ukraine
Current Conditions -  °F | °C
As of 1:00 PM on Wednesday 22 Oct 2014 (Local Time) from UKKM Reporting Station
Haze Haze  
Wind Chill: 52°   Ceiling: Unl
Heat Index: 52°   Visibility: 3mi
Dew Point: 48°   Wind: 2mph
Humidity: 88%   Direction: NA
Pressure: 29.77"   Gusts: NA
Location:  50.25°N, 28.67°E
Report Text: UKKM 221000Z VRB01MPS 5000 BR NSC 11/09 Q1008 1511//65 NOSIG
Loading
Personal Weather Stations






























Interactive Weather Map New forecast layout! Learn more

10-Day Weather Forecast

Advertisements
Track Severe Weather on mobile